Time;durP1;ratioP1;P1;durP2;ratioP2;P2;SDS_P1;SDS_P2;PMS_P1;PMS_P2;Temp;Humidity;BMP_temperature;BMP_pressure;BME280_temperature;BME280_humidity;BME280_pressure;Samples;Min_cycle;Max_cycle;Signal;HPM_P1;HPM_P2
2023/03/24 00:01:01;;;;;;;10.15;9.05;;;;;;;9.34;100.00;100060.44;10305227;28;20442;-72
2023/03/24 00:06:00;;;;;;;10.77;8.35;;;;;;;9.36;100.00;100058.97;10294976;28;20040;-71
2023/03/24 00:11:00;;;;;;;10.30;8.07;;;;;;;9.39;100.00;100052.88;10289624;28;20071;-72
2023/03/24 00:15:58;;;;;;;11.00;7.85;;;;;;;9.43;100.00;100045.63;10294278;28;20087;-73
2023/03/24 00:20:57;;;;;;;7.93;7.15;;;;;;;9.45;100.00;100031.69;10295523;28;20052;-70
2023/03/24 00:26:05;;;;;;;9.73;7.78;;;;;;;9.41;100.00;100026.06;10293809;28;20053;-70
2023/03/24 00:31:04;;;;;;;9.57;6.60;;;;;;;9.40;100.00;100013.56;10300391;28;20070;-71
2023/03/24 00:36:02;;;;;;;9.68;6.75;;;;;;;9.42;100.00;100015.94;10295221;28;20044;-79
2023/03/24 00:41:00;;;;;;;10.27;6.93;;;;;;;9.42;100.00;100002.28;10302407;28;20044;-79
2023/03/24 00:46:02;;;;;;;9.25;7.22;;;;;;;9.43;100.00;99999.25;10306748;28;20050;-78
2023/03/24 00:51:03;;;;;;;8.45;6.60;;;;;;;9.37;100.00;99997.81;10308980;28;20052;-78
2023/03/24 00:56:00;;;;;;;12.90;6.53;;;;;;;9.34;100.00;99984.84;10290383;28;20071;-71
2023/03/24 01:00:57;;;;;;;11.98;6.60;;;;;;;9.30;100.00;99977.63;10292747;28;20414;-77
2023/03/24 01:06:00;;;;;;;10.82;7.25;;;;;;;9.26;100.00;99977.50;10294884;28;20053;-77
2023/03/24 01:10:59;;;;;;;10.30;7.75;;;;;;;9.21;100.00;99962.13;10292095;28;20456;-70
2023/03/24 01:15:57;;;;;;;8.63;6.57;;;;;;;9.18;100.00;99956.50;10295576;28;20106;-70
2023/03/24 01:20:53;;;;;;;14.80;7.43;;;;;;;9.13;100.00;99946.56;10298570;28;20045;-70
2023/03/24 01:25:51;;;;;;;9.63;5.47;;;;;;;9.16;100.00;99940.47;10303224;28;20071;-73
2023/03/24 01:30:48;;;;;;;9.65;5.45;;;;;;;9.18;100.00;99927.28;10281125;28;20136;-73
2023/03/24 01:35:45;;;;;;;13.88;6.20;;;;;;;9.12;100.00;99911.44;10290747;28;20063;-81
2023/03/24 01:40:45;;;;;;;8.68;5.03;;;;;;;9.10;100.00;99911.78;10304148;28;20045;-76
2023/03/24 01:45:53;;;;;;;10.57;5.78;;;;;;;9.13;100.00;99896.69;10303274;28;20127;-77
2023/03/24 01:50:55;;;;;;;9.35;5.72;;;;;;;9.09;100.00;99884.84;10292307;28;20791;-77
2023/03/24 01:55:53;;;;;;;10.25;6.15;;;;;;;9.08;100.00;99872.34;10295787;28;20049;-77
2023/03/24 02:00:50;;;;;;;11.00;5.50;;;;;;;9.06;100.00;99857.09;10290209;28;20045;-77
2023/03/24 02:05:49;;;;;;;8.52;5.22;;;;;;;9.06;100.00;99848.13;10291534;28;20249;-78
2023/03/24 02:10:46;;;;;;;6.97;5.03;;;;;;;9.05;100.00;99830.97;10286932;28;20487;-74
2023/03/24 02:16:37;;;;;;;8.73;6.13;;;;;;;9.04;100.00;99818.44;10284211;28;20167;-71
2023/03/24 02:22:09;;;;;;;9.85;5.50;;;;;;;9.03;100.00;99805.94;10258287;28;20051;-72
2023/03/24 02:27:28;;;;;;;7.13;6.10;;;;;;;9.01;100.00;99797.28;10302370;28;20736;-75
2023/03/24 02:32:37;;;;;;;10.98;6.50;;;;;;;8.97;100.00;99787.38;10303470;28;20076;-77
2023/03/24 02:38:12;;;;;;;7.28;5.20;;;;;;;8.95;100.00;99782.25;10306246;28;20128;-77
2023/03/24 02:43:31;;;;;;;7.63;5.18;;;;;;;8.99;100.00;99777.72;10311047;28;20050;-77
2023/03/24 02:48:48;;;;;;;8.70;5.28;;;;;;;8.98;100.00;99770.69;10294486;28;20578;-76
2023/03/24 02:54:08;;;;;;;7.45;4.82;;;;;;;8.95;100.00;99754.97;10301160;28;20091;-79
2023/03/24 02:59:08;;;;;;;10.27;6.30;;;;;;;8.96;100.00;99748.41;10291079;28;20064;-77
2023/03/24 03:04:11;;;;;;;9.20;5.68;;;;;;;8.96;100.00;99748.41;10312579;28;20053;-77
2023/03/24 03:09:13;;;;;;;9.52;5.50;;;;;;;8.93;100.00;99719.06;10296228;28;20135;-76
2023/03/24 03:14:16;;;;;;;8.88;6.28;;;;;;;8.95;100.00;99716.03;10291347;28;20056;-76
2023/03/24 03:19:18;;;;;;;12.75;6.18;;;;;;;8.93;100.00;99697.25;10289903;28;20083;-77
2023/03/24 03:24:25;;;;;;;9.30;5.50;;;;;;;8.92;100.00;99690.22;10307963;28;20144;-78
2023/03/24 03:29:27;;;;;;;8.45;5.07;;;;;;;8.95;100.00;99670.47;10300225;28;20044;-76
2023/03/24 03:34:36;;;;;;;11.07;6.05;;;;;;;8.97;100.00;99659.25;10299512;28;20170;-76
2023/03/24 03:39:46;;;;;;;6.63;4.90;;;;;;;9.01;100.00;99652.78;10302807;28;20120;-78
2023/03/24 03:44:43;;;;;;;9.57;5.32;;;;;;;9.05;100.00;99642.81;10314458;28;20040;-78
2023/03/24 03:49:40;;;;;;;7.38;5.68;;;;;;;9.12;100.00;99628.66;10296680;28;20045;-79
2023/03/24 03:54:39;;;;;;;10.43;5.55;;;;;;;9.15;100.00;99627.19;10296092;28;20355;-76
2023/03/24 03:59:37;;;;;;;9.50;5.90;;;;;;;9.23;100.00;99624.34;10295964;28;20044;-80
2023/03/24 04:05:06;;;;;;;12.05;5.93;;;;;;;9.29;100.00;99614.03;10310641;28;20068;-79
2023/03/24 04:10:29;;;;;;;7.55;5.50;;;;;;;9.39;100.00;99621.78;10308015;28;20052;-77
2023/03/24 04:15:54;;;;;;;8.57;5.57;;;;;;;9.46;100.00;99605.66;10309475;28;20046;-80
2023/03/24 04:21:18;;;;;;;11.20;6.13;;;;;;;9.55;100.00;99602.06;10311254;28;20045;-80
2023/03/24 04:26:26;;;;;;;8.20;6.43;;;;;;;9.60;100.00;99599.13;10310659;28;20124;-80
2023/03/24 04:31:52;;;;;;;8.18;5.35;;;;;;;9.64;100.00;99583.66;10302979;28;20060;-81
2023/03/24 04:36:54;;;;;;;8.43;6.03;;;;;;;9.67;100.00;99577.50;10293621;28;20045;-81
2023/03/24 04:41:52;;;;;;;7.67;6.20;;;;;;;9.68;100.00;99584.59;10292109;28;20736;-81
2023/03/24 04:46:50;;;;;;;8.02;6.20;;;;;;;9.66;100.00;99567.75;10300851;28;20136;-77
2023/03/24 04:51:47;;;;;;;6.03;5.38;;;;;;;9.68;100.00;99568.22;10276789;28;20045;-79
2023/03/24 04:56:47;;;;;;;7.40;5.82;;;;;;;9.67;100.00;99566.59;10289512;28;20498;-76
2023/03/24 05:01:50;;;;;;;10.57;6.03;;;;;;;9.69;100.00;99554.19;10302553;28;20178;-80
2023/03/24 05:06:48;;;;;;;11.00;6.35;;;;;;;9.69;100.00;99550.69;10303793;28;20048;-71
2023/03/24 05:11:45;;;;;;;7.53;5.95;;;;;;;9.73;100.00;99546.13;10301730;28;20044;-76
2023/03/24 05:16:41;;;;;;;8.02;5.35;;;;;;;9.75;100.00;99545.78;10308285;28;20079;-76
2023/03/24 05:21:38;;;;;;;7.40;5.63;;;;;;;9.78;100.00;99534.19;10308286;28;20098;-75
2023/03/24 05:26:35;;;;;;;9.80;5.30;;;;;;;9.82;100.00;99543.31;10307714;28;20140;-73
2023/03/24 05:31:34;;;;;;;8.15;5.25;;;;;;;9.87;100.00;99532.94;10294463;28;20041;-71
2023/03/24 05:36:31;;;;;;;7.68;6.00;;;;;;;9.93;100.00;99529.97;10291858;28;20390;-78
2023/03/24 05:41:27;;;;;;;5.07;4.57;;;;;;;10.01;100.00;99531.81;10297310;28;20124;-78
2023/03/24 05:46:23;;;;;;;7.13;5.25;;;;;;;10.05;100.00;99527.25;10290542;28;20120;-78
2023/03/24 05:51:22;;;;;;;6.25;5.20;;;;;;;10.09;100.00;99522.69;10291865;28;20037;-75
2023/03/24 05:56:18;;;;;;;10.20;5.60;;;;;;;10.17;100.00;99516.31;10295418;28;20076;-74
2023/03/24 06:01:17;;;;;;;8.27;5.68;;;;;;;10.17;100.00;99513.56;10303696;28;20052;-74
2023/03/24 06:06:13;;;;;;;7.50;5.28;;;;;;;10.20;100.00;99501.16;10296949;28;20057;-75
2023/03/24 06:11:10;;;;;;;12.05;5.93;;;;;;;10.22;100.00;99496.16;10288556;28;20064;-75
2023/03/24 06:16:08;;;;;;;10.65;6.32;;;;;;;10.24;100.00;99491.94;10292529;28;20045;-74
2023/03/24 06:21:06;;;;;;;7.93;5.18;;;;;;;10.25;100.00;99482.59;10302550;28;20048;-74
2023/03/24 06:26:08;;;;;;;7.75;5.20;;;;;;;10.27;100.00;99485.78;10299051;28;20040;-75
2023/03/24 06:31:05;;;;;;;5.65;5.00;;;;;;;10.28;100.00;99492.88;10288892;28;20713;-75
2023/03/24 06:36:01;;;;;;;7.78;6.05;;;;;;;10.28;100.00;99492.88;10284824;28;20107;-75
2023/03/24 06:41:02;;;;;;;5.88;4.80;;;;;;;10.32;100.00;99493.75;10281122;28;20095;-74
2023/03/24 06:45:59;;;;;;;5.72;4.53;;;;;;;10.41;100.00;99509.22;10301550;28;20044;-75
2023/03/24 06:50:55;;;;;;;6.05;5.03;;;;;;;10.47;100.00;99516.03;10298025;28;20044;-74
2023/03/24 06:55:52;;;;;;;5.57;5.07;;;;;;;10.56;100.00;99505.78;10292023;28;20054;-75
2023/03/24 07:00:49;;;;;;;6.03;5.45;;;;;;;10.60;100.00;99509.38;10288335;28;20494;-75
2023/03/24 07:05:45;;;;;;;8.20;4.85;;;;;;;10.61;100.00;99516.44;10292765;28;20072;-74
2023/03/24 07:10:42;;;;;;;6.28;5.68;;;;;;;10.60;100.00;99542.19;10288576;28;20083;-75
2023/03/24 07:15:39;;;;;;;6.15;5.55;;;;;;;10.59;100.00;99578.88;10287558;28;20075;-75
2023/03/24 07:20:36;;;;;;;6.95;6.35;;;;;;;10.39;100.00;99580.59;10294056;28;20078;-77
2023/03/24 07:25:33;;;;;;;6.25;5.75;;;;;;;10.32;100.00;99589.38;10307772;28;20124;-77
2023/03/24 07:30:29;;;;;;;7.18;6.32;;;;;;;10.36;100.00;99614.09;10308322;28;20072;-77
2023/03/24 07:35:36;;;;;;;6.20;5.70;;;;;;;10.39;100.00;99597.00;10303611;28;20051;-77
2023/03/24 07:40:34;;;;;;;6.95;6.03;;;;;;;10.38;100.00;99608.28;10308386;28;20044;-77
2023/03/24 07:45:31;;;;;;;7.28;6.57;;;;;;;10.39;100.00;99618.06;10304766;28;20410;-77
2023/03/24 07:50:29;;;;;;;6.55;6.00;;;;;;;10.26;100.00;99620.78;10280879;28;20131;-76
2023/03/24 07:55:26;;;;;;;6.38;5.60;;;;;;;10.09;100.00;99637.38;10277752;28;20139;-76
2023/03/24 08:00:23;;;;;;;8.30;5.72;;;;;;;10.14;100.00;99664.47;10295111;28;20060;-76
2023/03/24 08:05:21;;;;;;;8.55;5.57;;;;;;;10.13;100.00;99660.16;10299359;28;20052;-75
2023/03/24 08:10:20;;;;;;;8.80;4.70;;;;;;;10.06;100.00;99677.09;10291549;28;20710;-75
2023/03/24 08:15:17;;;;;;;9.88;4.68;;;;;;;9.86;100.00;99676.06;10302194;28;20052;-74
2023/03/24 08:20:13;;;;;;;7.82;4.85;;;;;;;10.00;100.00;99688.59;10294256;28;20072;-74
2023/03/24 08:25:11;;;;;;;10.68;4.75;;;;;;;10.03;100.00;99690.66;10293459;28;20557;-74
2023/03/24 08:30:09;;;;;;;6.82;4.35;;;;;;;10.24;100.00;99710.47;10300039;28;20616;-74
2023/03/24 08:35:06;;;;;;;8.93;4.00;;;;;;;10.42;100.00;99730.22;10292815;28;20072;-74
2023/03/24 08:40:04;;;;;;;10.02;4.00;;;;;;;10.32;100.00;99723.25;10302388;28;20045;-72
2023/03/24 08:45:00;;;;;;;8.27;4.05;;;;;;;10.36;100.00;99733.53;10289972;28;20071;-73
2023/03/24 08:49:57;;;;;;;6.90;4.30;;;;;;;10.45;100.00;99743.19;10281530;28;20469;-73
2023/03/24 08:54:54;;;;;;;7.72;4.10;;;;;;;10.69;100.00;99756.06;10289863;28;20131;-73
2023/03/24 08:59:50;;;;;;;8.90;4.22;;;;;;;10.63;100.00;99760.19;10290399;28;20048;-73
2023/03/24 09:17:21;;;;;;;10.65;4.72;;;;;;;10.46;100.00;99771.31;10292625;28;20033;-73
2023/03/24 09:22:18;;;;;;;9.15;4.95;;;;;;;10.46;100.00;99787.72;10305586;28;20110;-73
2023/03/24 09:27:15;;;;;;;9.25;4.97;;;;;;;10.34;100.00;99787.72;10296365;28;20049;-73
2023/03/24 09:32:12;;;;;;;9.27;5.30;;;;;;;10.26;100.00;99795.63;10303107;28;20045;-74
2023/03/24 09:37:08;;;;;;;10.45;5.13;;;;;;;10.30;100.00;99798.50;10299809;28;20040;-73
2023/03/24 09:42:07;;;;;;;9.55;4.68;;;;;;;10.38;100.00;99807.75;10290655;28;20045;-73
2023/03/24 09:47:11;;;;;;;10.15;5.40;;;;;;;10.33;100.00;99808.78;10280387;28;20053;-73
2023/03/24 09:52:23;;;;;;;10.77;4.95;;;;;;;10.58;100.00;99808.81;10286662;28;20135;-74
2023/03/24 09:57:36;;;;;;;9.65;5.00;;;;;;;10.57;100.00;99807.22;10288552;28;20055;-73
2023/03/24 10:02:32;;;;;;;13.00;5.60;;;;;;;10.57;100.00;99846.28;10293491;28;20123;-73
2023/03/24 10:07:36;;;;;;;12.90;5.38;;;;;;;10.62;100.00;99829.66;10291000;28;20040;-74
2023/03/24 10:12:38;;;;;;;6.10;4.80;;;;;;;10.68;100.00;99855.63;10295374;28;20047;-74
2023/03/24 10:18:03;;;;;;;8.10;4.97;;;;;;;10.67;100.00;99843.09;10295504;28;20044;-73
2023/03/24 10:23:06;;;;;;;14.35;5.38;;;;;;;11.34;100.00;99831.94;10304717;28;20079;-74
2023/03/24 10:28:18;;;;;;;7.78;5.20;;;;;;;11.43;100.00;99829.88;10309715;28;20071;-74
2023/03/24 10:33:15;;;;;;;11.23;5.97;;;;;;;11.48;100.00;99832.34;10289866;28;20586;-73
2023/03/24 10:38:21;;;;;;;9.38;5.10;;;;;;;11.27;100.00;99827.03;10293745;28;21053;-73
2023/03/24 10:43:18;;;;;;;11.50;5.60;;;;;;;11.46;100.00;99831.91;10292647;28;20760;-74
2023/03/24 10:48:43;;;;;;;10.15;6.03;;;;;;;11.30;100.00;99836.50;10288748;28;20110;-74
2023/03/24 10:53:40;;;;;;;9.90;6.20;;;;;;;11.48;100.00;99848.78;10282573;28;20422;-73
2023/03/24 10:58:41;;;;;;;12.10;5.68;;;;;;;12.07;100.00;99868.50;10294542;28;20514;-73
2023/03/24 11:03:38;;;;;;;11.85;6.40;;;;;;;12.68;100.00;99838.03;10298130;28;20053;-73
2023/03/24 11:08:37;;;;;;;9.10;6.15;;;;;;;12.71;100.00;99864.75;10302150;28;20066;-74
2023/03/24 11:13:34;;;;;;;12.60;6.35;;;;;;;12.41;100.00;99867.88;10297702;28;20041;-73
2023/03/24 11:18:31;;;;;;;9.05;6.55;;;;;;;13.10;100.00;99864.94;10304390;28;20498;-74
2023/03/24 11:23:34;;;;;;;9.43;5.97;;;;;;;13.37;100.00;99873.44;10310990;28;20083;-74
2023/03/24 11:28:36;;;;;;;9.90;6.18;;;;;;;13.78;100.00;99854.72;10298387;28;20056;-74
2023/03/24 11:33:42;;;;;;;8.82;7.03;;;;;;;13.39;100.00;99865.63;10294371;28;20048;-74
2023/03/24 11:38:38;;;;;;;14.63;6.88;;;;;;;12.90;100.00;99855.03;10303127;28;20044;-74
2023/03/24 11:43:35;;;;;;;9.63;6.20;;;;;;;12.95;100.00;99854.75;10292956;28;20047;-74
2023/03/24 11:48:47;;;;;;;9.75;6.53;;;;;;;12.66;100.00;99862.28;10300730;28;20063;-74
2023/03/24 11:53:49;;;;;;;7.97;6.65;;;;;;;12.49;100.00;99857.13;10279609;28;20057;-74
2023/03/24 11:58:55;;;;;;;13.93;7.22;;;;;;;12.13;100.00;99861.63;10291576;28;20094;-74
2023/03/24 12:04:34;;;;;;;8.95;6.70;;;;;;;12.00;100.00;99867.19;10295361;28;20091;-74
2023/03/24 12:09:48;;;;;;;11.27;6.35;;;;;;;12.30;100.00;99886.00;10305111;28;20127;-74
2023/03/24 12:15:12;;;;;;;14.63;6.90;;;;;;;13.21;100.00;99879.72;10297143;28;20538;-74
2023/03/24 12:20:31;;;;;;;14.95;6.78;;;;;;;13.82;100.00;99905.03;10295870;28;20040;-74
2023/03/24 12:25:38;;;;;;;11.95;6.88;;;;;;;13.18;100.00;99888.66;10299309;28;20724;-74
2023/03/24 12:30:40;;;;;;;12.35;6.35;;;;;;;12.43;100.00;99873.81;10302356;28;20120;-74
2023/03/24 12:35:48;;;;;;;14.43;7.40;;;;;;;14.60;100.00;99883.06;10289662;28;20051;-74
2023/03/24 12:40:48;;;;;;;9.40;5.93;;;;;;;12.98;100.00;99881.50;10291893;28;20127;-74
2023/03/24 12:45:54;;;;;;;13.80;6.70;;;;;;;12.40;100.00;99882.75;10297966;28;20075;-74
2023/03/24 12:51:10;;;;;;;11.73;7.85;;;;;;;12.19;100.00;99887.66;10289598;28;20057;-74
2023/03/24 12:56:32;;;;;;;12.43;7.15;;;;;;;13.93;100.00;99866.81;10295499;28;20048;-75
2023/03/24 13:01:34;;;;;;;12.23;7.63;;;;;;;15.56;100.00;99901.16;10291738;28;20093;-75
2023/03/24 13:06:58;;;;;;;14.63;8.25;;;;;;;17.73;100.00;99894.72;10304284;28;20095;-75
2023/03/24 13:12:02;;;;;;;10.88;7.75;;;;;;;18.57;100.00;99897.47;10307631;28;20550;-75
2023/03/24 13:17:04;;;;;;;11.75;7.03;;;;;;;16.50;100.00;99902.34;10300984;28;20060;-76
2023/03/24 13:22:05;;;;;;;12.60;7.68;;;;;;;18.63;100.00;99884.81;10289441;28;20055;-75
2023/03/24 13:27:19;;;;;;;8.88;7.07;;;;;;;18.67;93.83;99882.84;10299382;28;20533;-74
2023/03/24 13:32:24;;;;;;;13.02;7.78;;;;;;;19.03;80.28;99902.31;10307195;28;20097;-75
2023/03/24 13:37:31;;;;;;;11.75;7.35;;;;;;;16.72;87.31;99900.63;10299488;28;20059;-75
2023/03/24 13:42:41;;;;;;;9.27;6.70;;;;;;;17.56;80.37;99895.41;10295520;28;20530;-75
2023/03/24 13:47:55;;;;;;;14.10;7.10;;;;;;;18.04;78.97;99898.84;10285420;28;20040;-73
2023/03/24 13:52:54;;;;;;;9.57;6.97;;;;;;;18.13;76.34;99898.50;10300401;28;20064;-74
2023/03/24 13:57:57;;;;;;;8.63;6.75;;;;;;;18.70;70.47;99890.38;10301606;28;20044;-73
2023/03/24 14:03:10;;;;;;;13.73;7.47;;;;;;;16.68;75.25;99891.50;10302380;28;20098;-72
2023/03/24 14:08:07;;;;;;;9.95;6.55;;;;;;;18.29;72.72;99910.03;10289254;28;20045;-73
2023/03/24 14:13:18;;;;;;;10.05;6.75;;;;;;;18.37;68.78;99913.59;10293691;28;20045;-73
2023/03/24 14:18:15;;;;;;;11.32;6.60;;;;;;;18.55;71.12;99902.59;10307458;28;20056;-73
2023/03/24 14:23:28;;;;;;;10.07;6.85;;;;;;;18.77;71.44;99910.97;10304840;28;20147;-73
2023/03/24 14:28:30;;;;;;;;;;;;;;;18.99;66.49;99918.13;10287731;28;20041;-74
2023/03/24 14:33:27;;;;;;;9.33;6.50;;;;;;;17.93;70.41;99914.59;10306293;28;19927;-74
2023/03/24 14:38:25;;;;;;;9.95;7.20;;;;;;;17.41;70.51;99914.66;10296758;28;20567;-74
2023/03/24 14:43:40;;;;;;;12.68;6.88;;;;;;;17.90;72.17;99911.84;10290407;28;20406;-73
2023/03/24 14:48:40;;;;;;;11.50;7.10;;;;;;;18.84;66.31;99900.69;10301510;28;20048;-74
2023/03/24 14:53:37;;;;;;;10.50;6.43;;;;;;;17.98;67.91;99916.22;10307339;28;20075;-74
2023/03/24 14:58:37;;;;;;;7.25;6.57;;;;;;;18.08;68.29;99898.88;10302846;28;20050;-73
2023/03/24 15:03:52;;;;;;;10.40;7.00;;;;;;;17.55;70.60;99900.16;10303370;28;20487;-73
2023/03/24 15:08:50;;;;;;;10.25;6.40;;;;;;;18.84;66.70;99906.22;10298954;28;20173;-73
2023/03/24 15:13:54;;;;;;;10.73;6.60;;;;;;;18.48;63.70;99894.28;10294172;28;20043;-74
2023/03/24 15:18:59;;;;;;;7.57;6.10;;;;;;;17.24;67.00;99929.13;10304860;28;20040;-74
2023/03/24 15:23:59;;;;;;;11.50;6.95;;;;;;;16.14;68.30;99924.81;10309450;28;20063;-74
2023/03/24 15:29:01;;;;;;;10.70;6.43;;;;;;;16.34;72.32;99899.84;10302609;28;20055;-73
2023/03/24 15:34:32;;;;;;;13.95;7.00;;;;;;;16.77;68.53;99905.78;10295656;28;20140;-74
2023/03/24 15:39:33;;;;;;;9.90;6.90;;;;;;;15.65;71.15;99902.84;10296606;28;20059;-73
2023/03/24 15:44:33;;;;;;;10.02;6.55;;;;;;;15.40;73.84;99907.97;10293247;28;20049;-73
2023/03/24 15:49:34;;;;;;;11.15;5.93;;;;;;;14.66;79.86;99898.09;10293606;28;20091;-73
2023/03/24 15:54:39;;;;;;;7.00;6.30;;;;;;;14.62;80.27;99891.72;10301728;28;20074;-74
2023/03/24 15:59:36;;;;;;;7.95;6.45;;;;;;;15.10;79.90;99878.41;10306184;28;20041;-74
2023/03/24 16:04:32;;;;;;;9.80;6.40;;;;;;;16.17;75.83;99885.44;10306872;28;20040;-74
2023/03/24 16:09:37;;;;;;;7.43;5.68;;;;;;;15.59;77.31;99877.56;10301430;28;20090;-75
2023/03/24 16:14:34;;;;;;;12.35;6.05;;;;;;;15.38;79.41;99877.25;10296323;28;20181;-75
2023/03/24 16:19:31;;;;;;;12.38;5.82;;;;;;;14.55;86.90;99883.34;10299386;28;20092;-75
2023/03/24 16:24:28;;;;;;;9.32;6.53;;;;;;;14.35;90.94;99891.59;10304592;28;20051;-75
2023/03/24 16:29:25;;;;;;;13.82;7.60;;;;;;;14.07;99.59;99884.38;10308627;28;20093;-76
2023/03/24 16:34:22;;;;;;;12.77;7.40;;;;;;;13.91;100.00;99886.41;10308125;28;20075;-75
2023/03/24 16:39:22;;;;;;;10.45;7.15;;;;;;;13.83;100.00;99901.13;10301409;28;20483;-76
2023/03/24 16:44:19;;;;;;;10.32;7.70;;;;;;;13.49;100.00;99905.50;10291903;28;20044;-74
2023/03/24 16:49:17;;;;;;;11.52;7.70;;;;;;;13.41;100.00;99896.25;10293636;28;20071;-72
2023/03/24 16:54:14;;;;;;;11.05;7.32;;;;;;;13.17;100.00;99903.53;10289143;28;20462;-74
2023/03/24 16:59:13;;;;;;;15.25;8.20;;;;;;;13.06;100.00;99902.47;10294920;28;20095;-73
2023/03/24 17:04:17;;;;;;;13.85;8.00;;;;;;;12.98;100.00;99908.94;10300564;28;20102;-74
2023/03/24 17:09:14;;;;;;;11.30;8.13;;;;;;;12.82;100.00;99904.22;10300855;28;20128;-74
2023/03/24 17:14:11;;;;;;;11.13;7.43;;;;;;;12.75;100.00;99909.53;10294044;28;20041;-74
2023/03/24 17:19:12;;;;;;;17.30;8.10;;;;;;;12.69;100.00;99908.19;10300943;28;20048;-73
2023/03/24 17:24:11;;;;;;;12.18;8.10;;;;;;;12.73;100.00;99916.53;10302328;28;20227;-74
2023/03/24 17:29:10;;;;;;;13.60;8.40;;;;;;;12.63;100.00;99910.41;10296121;28;20040;-74
2023/03/24 17:34:16;;;;;;;11.70;9.00;;;;;;;12.36;100.00;99916.69;10294219;28;20499;-75
2023/03/24 17:39:19;;;;;;;9.90;7.75;;;;;;;12.19;100.00;99898.63;10302577;28;20075;-74
2023/03/24 17:44:16;;;;;;;10.55;7.25;;;;;;;11.99;100.00;99912.13;10298338;28;20064;-74
2023/03/24 17:49:14;;;;;;;11.40;7.93;;;;;;;11.76;100.00;99908.28;10294835;28;20075;-75
2023/03/24 17:54:12;;;;;;;10.85;7.40;;;;;;;11.69;100.00;99902.59;10282737;28;20040;-74
2023/03/24 17:59:09;;;;;;;9.32;7.68;;;;;;;11.56;100.00;99913.56;10295200;28;20131;-74
2023/03/24 18:04:06;;;;;;;11.20;8.15;;;;;;;11.52;100.00;99920.88;10297796;28;20073;-75
2023/03/24 18:09:03;;;;;;;10.27;7.75;;;;;;;11.42;100.00;99932.28;10300840;28;20498;-73
2023/03/24 18:14:01;;;;;;;9.95;7.10;;;;;;;11.21;100.00;99931.59;10297464;28;20063;-74
2023/03/24 18:19:00;;;;;;;11.15;7.40;;;;;;;11.14;100.00;99960.31;10298425;28;20064;-74
2023/03/24 18:23:57;;;;;;;10.65;7.32;;;;;;;11.05;100.00;99950.63;10288586;28;20469;-74
2023/03/24 18:28:54;;;;;;;15.40;8.10;;;;;;;10.99;100.00;99958.25;10302931;28;20048;-74
2023/03/24 18:33:52;;;;;;;7.03;6.28;;;;;;;10.85;100.00;99969.47;10295295;28;20045;-74
2023/03/24 18:38:49;;;;;;;9.93;6.35;;;;;;;10.83;100.00;99976.44;10289040;28;20088;-74
2023/03/24 18:43:46;;;;;;;10.27;6.65;;;;;;;10.70;100.00;99973.66;10294438;28;20037;-74
2023/03/24 18:48:45;;;;;;;7.07;6.13;;;;;;;10.65;100.00;99971.16;10290790;28;20109;-74
2023/03/24 18:53:42;;;;;;;8.63;6.65;;;;;;;10.61;100.00;99970.22;10300324;28;20068;-74
2023/03/24 18:58:42;;;;;;;10.35;6.75;;;;;;;10.58;100.00;99970.88;10296782;28;20131;-73
2023/03/24 19:03:40;;;;;;;8.73;6.60;;;;;;;10.48;100.00;99982.22;10293315;28;20127;-74
2023/03/24 19:08:41;;;;;;;9.13;5.88;;;;;;;10.38;100.00;99985.38;10285604;28;20083;-74
2023/03/24 19:13:40;;;;;;;8.88;7.03;;;;;;;10.32;100.00;99985.56;10301239;28;20064;-74
2023/03/24 19:18:37;;;;;;;11.15;6.85;;;;;;;10.25;100.00;99982.53;10292964;28;20571;-74
2023/03/24 19:23:35;;;;;;;8.65;6.72;;;;;;;10.19;100.00;99988.53;10296778;28;20071;-74
2023/03/24 19:28:32;;;;;;;7.43;6.72;;;;;;;10.12;100.00;99975.41;10302212;28;20071;-74
2023/03/24 19:33:34;;;;;;;7.80;6.40;;;;;;;10.07;100.00;99972.88;10297669;28;20123;-75
2023/03/24 19:38:32;;;;;;;7.20;6.50;;;;;;;9.99;100.00;99976.47;10301934;28;20045;-74
2023/03/24 19:43:29;;;;;;;8.57;5.93;;;;;;;9.93;100.00;99966.88;10303897;28;20594;-74
2023/03/24 19:48:26;;;;;;;8.07;6.30;;;;;;;9.95;100.00;99967.34;10296519;28;20044;-74
2023/03/24 19:53:23;;;;;;;8.48;6.20;;;;;;;9.88;100.00;99976.84;10293252;28;20050;-74
2023/03/24 19:58:20;;;;;;;11.68;7.22;;;;;;;9.77;100.00;99967.47;10300584;28;20098;-74
2023/03/24 20:03:17;;;;;;;7.10;5.95;;;;;;;9.77;100.00;99972.91;10303071;28;20051;-74
2023/03/24 20:08:17;;;;;;;7.50;6.45;;;;;;;9.66;100.00;99971.69;10304313;28;20048;-74
2023/03/24 20:13:14;;;;;;;8.75;6.18;;;;;;;9.63;100.00;99975.06;10312278;28;20434;-74
2023/03/24 20:18:11;;;;;;;8.23;6.00;;;;;;;9.58;100.00;99980.72;10309846;28;20045;-74
2023/03/24 20:23:09;;;;;;;6.57;5.70;;;;;;;9.50;100.00;99987.03;10297005;28;20040;-74
2023/03/24 20:28:06;;;;;;;7.10;6.13;;;;;;;9.48;100.00;99968.25;10290341;28;20045;-74
2023/03/24 20:33:02;;;;;;;9.38;6.30;;;;;;;9.41;100.00;99974.22;10301725;28;20048;-75
2023/03/24 20:37:59;;;;;;;6.95;6.35;;;;;;;9.45;100.00;99964.25;10292320;28;20132;-74
2023/03/24 20:42:56;;;;;;;9.35;7.03;;;;;;;9.55;100.00;99967.75;10297827;28;20127;-74
2023/03/24 20:47:53;;;;;;;6.72;6.13;;;;;;;9.55;100.00;99967.75;10295737;28;20048;-74
2023/03/24 20:52:50;;;;;;;6.75;6.15;;;;;;;9.44;100.00;99970.81;10293393;28;20044;-74
2023/03/24 20:57:47;;;;;;;5.85;5.32;;;;;;;9.26;100.00;99961.13;10291777;28;20037;-74
2023/03/24 21:02:44;;;;;;;7.63;5.70;;;;;;;9.18;100.00;99959.22;10300980;28;20047;-74
2023/03/24 21:07:42;;;;;;;5.53;5.03;;;;;;;9.10;100.00;99957.31;10298414;28;20048;-73
2023/03/24 21:12:39;;;;;;;5.80;5.25;;;;;;;9.04;100.00;99967.63;10298434;28;20304;-74
2023/03/24 21:17:50;;;;;;;11.80;6.50;;;;;;;8.96;100.00;99955.63;10291475;28;20510;-74
2023/03/24 21:22:54;;;;;;;5.85;5.13;;;;;;;8.94;100.00;99955.16;10299062;28;20135;-74
2023/03/24 21:27:52;;;;;;;7.88;5.70;;;;;;;8.87;100.00;99964.97;10283785;28;20045;-70
2023/03/24 21:32:50;;;;;;;7.55;5.35;;;;;;;8.82;100.00;99964.00;10286735;28;20060;-70
2023/03/24 21:37:48;;;;;;;10.27;4.75;;;;;;;8.78;100.00;99973.16;10298443;28;20055;-74
2023/03/24 21:42:48;;;;;;;11.13;5.35;;;;;;;8.75;100.00;99954.69;10301724;28;20418;-73
2023/03/24 21:47:47;;;;;;;8.23;4.95;;;;;;;8.71;100.00;99951.03;10302212;28;20053;-73
2023/03/24 21:52:46;;;;;;;7.03;5.10;;;;;;;8.77;100.00;99955.16;10291413;28;20069;-71
2023/03/24 21:57:44;;;;;;;7.82;4.78;;;;;;;8.70;100.00;99939.31;10298089;28;20044;-76
2023/03/24 22:02:44;;;;;;;5.45;4.35;;;;;;;8.77;100.00;99949.72;10284523;28;20431;-77
2023/03/24 22:07:41;;;;;;;8.07;4.72;;;;;;;8.69;100.00;99942.38;10297707;28;20052;-68
2023/03/24 22:12:38;;;;;;;6.07;4.60;;;;;;;8.73;100.00;99944.13;10290217;28;20426;-71
2023/03/24 22:17:36;;;;;;;5.78;4.50;;;;;;;8.68;100.00;99940.75;10287324;28;20072;-74
2023/03/24 22:22:38;;;;;;;8.23;4.80;;;;;;;8.68;100.00;99946.22;10298507;28;20041;-74
2023/03/24 22:27:37;;;;;;;7.90;5.10;;;;;;;8.64;100.00;99935.19;10284728;28;20072;-74
2023/03/24 22:32:36;;;;;;;7.70;5.20;;;;;;;8.55;100.00;99929.72;10300079;28;20565;-74
2023/03/24 22:37:35;;;;;;;6.05;4.90;;;;;;;8.48;100.00;99926.72;10293170;28;20259;-75
2023/03/24 22:42:32;;;;;;;8.88;5.32;;;;;;;8.47;100.00;99918.84;10293053;28;20037;-74
2023/03/24 22:47:29;;;;;;;9.13;4.90;;;;;;;8.41;100.00;99920.94;10302672;28;20399;-74
2023/03/24 22:52:26;;;;;;;7.63;5.50;;;;;;;8.50;100.00;99934.56;10288393;28;20041;-72
2023/03/24 22:57:23;;;;;;;9.85;5.00;;;;;;;8.73;100.00;99924.25;10300820;28;20056;-73
2023/03/24 23:02:23;;;;;;;5.47;4.68;;;;;;;8.90;100.00;99921.47;10301791;28;20048;-72
2023/03/24 23:07:21;;;;;;;6.65;5.20;;;;;;;8.89;100.00;99914.44;10290981;28;20153;-72
2023/03/24 23:12:17;;;;;;;8.45;4.90;;;;;;;8.90;100.00;99920.69;10313427;28;20060;-74
2023/03/24 23:17:14;;;;;;;8.40;6.15;;;;;;;8.98;100.00;99917.94;10300828;28;20510;-73
2023/03/24 23:22:11;;;;;;;9.02;5.70;;;;;;;8.93;100.00;99909.91;10305593;28;20048;-74